CYXU

London Airport

London, Ontario, Canada
TAF CYXU 181738Z 1818/1918 25006KT P6SM SCT025 FM190000 VRB03KT P6SM SKC FM190800 21007KT P6SM FEW008 PROB30 1908/1913 2SM BR FM191300 21012KT P6SM BKN190 RMK NXT FCST BY 190000Z
Issued Valid From Valid To
Dec-18 @ 17:38 UTC
(6 hours ago)
Dec-18 @ 18:00 UTC
(5 hours ago)
Dec-19 @ 18:00 UTC
(in 19 hours)
Dec-18 @ 18:00 to Dec-19 @ 00:00
TAF CYXU 181738Z 1818/1918 25006KT P6SM SCT025
Wind Visibility Clouds
250° at 6 knots Greater than 6 miles
  • Scattered at 2,500' AGL
From Dec-19 @ 00:00 to Dec-19 @ 08:00
FM190000 VRB03KT P6SM SKC
Wind Visibility Clouds
Variable at 3 knots Greater than 6 miles
  • Clear skies
Probable  (Probability 30%) Dec-19 @ 08:00 to Dec-19 @ 13:00
PROB30 1908/1913 2SM BR
Visibility Conditions
2 miles
  • Mist
From Dec-19 @ 08:00 to Dec-19 @ 13:00
FM190800 21007KT P6SM FEW008
Wind Visibility Clouds
210° at 7 knots Greater than 6 miles
  • Few at 800' AGL
From Dec-19 @ 13:00 to Dec-19 @ 18:00
FM191300 21012KT P6SM BKN190 RMK NXT FCST BY 190000Z
Wind Visibility Clouds
210° at 12 knots Greater than 6 miles
  • Broken at 19,000' AGL
TAF CYXU 181738Z 1818/1918 25006KT P6SM SCT025 FM190000 VRB03KT P6SM SKC FM190800 21007KT P6SM FEW008 PROB30 1908/1913 2SM BR FM191300 21012KT P6SM BKN190 RMK NXT FCST BY 190000Z
Issued Dec-18 @ 17:38 UTC
(6 hours ago)
Valid From Dec-18 @ 18:00 UTC
(5 hours ago)
Valid To Dec-19 @ 18:00 UTC
(in 19 hours)
Dec-18 @ 18:00 - Dec-19 @ 00:00
Wind Visibility
250° at 6 knots Greater than 6 miles
Clouds
  • Scattered at 2,500' AGL
From Dec-19 @ 00:00 - Dec-19 @ 08:00
Wind Visibility
Variable at 3 knots Greater than 6 miles
Clouds
  • Clear skies
Probability 30% Probable Dec-19 @ 08:00 - Dec-19 @ 13:00
Conditions
  • Mist
From Dec-19 @ 08:00 - Dec-19 @ 13:00
Wind Visibility
210° at 7 knots Greater than 6 miles
Clouds
  • Few at 800' AGL
From Dec-19 @ 13:00 - Dec-19 @ 18:00
Wind Visibility
210° at 12 knots Greater than 6 miles
Clouds
  • Broken at 19,000' AGL